^^
Grace C. Lehan Memorial Weather Station Historical Data
Daily Summary for January 22, 2021 Units:  English    Metric   Both
Daily Weekly Monthly Yearly
  High: Low: Average:
Temperature: 74.6 °F 53.9 °F 63.4 °F
Dew Point: 60.3 °F 43.9 °F 55.2 °F
Humidity: 95% 53.2% 76%
Wind Speed: 5mph 0mph 0.7mph
Wind Gust: 13mph - -
Wind- - WNW
Pressure: 29.91 in 29.70 in -
Precipitation: 0.01 in    
 
 
Tabular Data for January 22, 2021
Time Temperature Dew Point Pressure Wind Wind Speed Wind Gust Humidity Rainfall Rate (Hourly) solar
00:00 60.4 °F 58.4 °F 29.78 in Calm     93% 0.00 in 0 W/m2
00:09 60.3 °F 58.3 °F 29.78 in Calm     93% 0.00 in 0 W/m2
00:14 60.3 °F 58.3 °F 29.78 in Calm     93% 0.00 in 0 W/m2
00:19 60.2 °F 58.2 °F 29.77 in Calm     93% 0.00 in 0 W/m2
00:24 60.2 °F 58.1 °F 29.77 in Calm     93% 0.00 in 0 W/m2
00:29 60.1 °F 58.2 °F 29.77 in Calm     93.3% 0.00 in 0 W/m2
00:34 60.2 °F 58.5 °F 29.77 in Calm     94% 0.00 in 0 W/m2
00:39 60.3 °F 58.6 °F 29.77 in Calm     94% 0.00 in 0 W/m2
00:44 60.3 °F 58.6 °F 29.77 in Calm     94% 0.00 in 0 W/m2
00:49 60.3 °F 58.6 °F 29.77 in Calm     94% 0.00 in 0 W/m2
00:54 60.2 °F 58.5 °F 29.76 in Calm     94% 0.00 in 0 W/m2
00:59 60.2 °F 58.5 °F 29.76 in Calm     94% 0.00 in 0 W/m2
01:04 60.1 °F 58.4 °F 29.76 in Calm     94% 0.00 in 0 W/m2
01:09 60.2 °F 58.4 °F 29.76 in Calm     94% 0.00 in 0 W/m2
01:14 60.2 °F 58.5 °F 29.76 in Calm     94% 0.00 in 0 W/m2
01:19 60.2 °F 58.5 °F 29.76 in Calm     94% 0.00 in 0 W/m2
01:24 60.2 °F 58.5 °F 29.76 in Calm     94% 0.00 in 0 W/m2
01:29 60.4 °F 58.6 °F 29.75 in Calm     94% 0.00 in 0 W/m2
01:34 60.4 °F 58.7 °F 29.75 in Calm     94% 0.00 in 0 W/m2
01:39 60.5 °F 58.8 °F 29.75 in Calm     94% 0.00 in 0 W/m2
01:44 60.5 °F 58.8 °F 29.75 in Calm     94% 0.00 in 0 W/m2
01:49 60.6 °F 58.8 °F 29.75 in Calm     94% 0.00 in 0 W/m2
01:54 60.6 °F 58.9 °F 29.75 in Calm     94% 0.00 in 0 W/m2
01:59 60.6 °F 58.9 °F 29.74 in Calm     94% 0.00 in 0 W/m2
02:04 60.6 °F 58.9 °F 29.74 in Calm     94% 0.00 in 0 W/m2
02:09 60.6 °F 58.8 °F 29.74 in Calm     94% 0.00 in 0 W/m2
02:14 60.6 °F 59 °F 29.73 in Calm     94.3% 0.00 in 0 W/m2
02:19 60.7 °F 59.3 °F 29.73 in Calm     95% 0.00 in 0 W/m2
02:24 60.7 °F 59.3 °F 29.73 in Calm     95% 0.00 in 0 W/m2
02:29 60.8 °F 59.4 °F 29.73 in South 0.1 mph 2 mph 95% 0.00 in 0 W/m2
02:34 60.8 °F 59.4 °F 29.73 in Calm   2 mph 95% 0.00 in 0 W/m2
02:39 60.8 °F 59.4 °F 29.73 in Calm   1 mph 95% 0.00 in 0 W/m2
02:44 60.8 °F 59.4 °F 29.73 in Calm   1 mph 95% 0.00 in 0 W/m2
02:49 60.9 °F 59.5 °F 29.73 in Calm   1 mph 95% 0.00 in 0 W/m2
02:54 60.9 °F 59.5 °F 29.73 in Calm   1 mph 95% 0.00 in 0 W/m2
02:59 60.9 °F 59.5 °F 29.73 in Calm   1 mph 95% 0.00 in 0 W/m2
03:04 60.9 °F 59.5 °F 29.73 in Calm   1 mph 95% 0.00 in 0 W/m2
03:09 60.9 °F 59.5 °F 29.73 in Calm     95% 0.00 in 0 W/m2
03:14 60.9 °F 59.5 °F 29.72 in Calm     95% 0.00 in 0 W/m2
03:19 60.8 °F 59.4 °F 29.72 in Calm     95% 0.00 in 0 W/m2
03:24 60.8 °F 59.4 °F 29.72 in Calm     95% 0.00 in 0 W/m2
03:29 60.8 °F 59.4 °F 29.72 in Calm     95% 0.00 in 0 W/m2
03:34 60.7 °F 59.1 °F 29.71 in Calm     94.4% 0.00 in 0 W/m2
03:39 60.7 °F 59 °F 29.71 in Calm     94% 0.00 in 0 W/m2
03:44 60.7 °F 58.9 °F 29.71 in Calm     94% 0.00 in 0 W/m2
03:49 60.6 °F 58.9 °F 29.71 in Calm     94% 0.00 in 0 W/m2
03:54 60.5 °F 58.8 °F 29.71 in Calm     94% 0.00 in 0 W/m2
03:59 60.4 °F 58.7 °F 29.71 in Calm     94% 0.00 in 0 W/m2
04:00 60.4 °F 58.7 °F 29.71 in Calm     94% 0.00 in 0 W/m2
04:09 60.4 °F 58.7 °F 29.71 in Calm     94% 0.00 in 0 W/m2
04:14 60.4 °F 58.7 °F 29.71 in South 0.2 mph 3 mph 94.1% 0.00 in 0 W/m2
04:19 60.4 °F 58.7 °F 29.70 in Calm   3 mph 94% 0.00 in 0 W/m2
04:24 60.4 °F 58.7 °F 29.70 in Calm   3 mph 94% 0.00 in 0 W/m2
04:29 60.4 °F 58.7 °F 29.70 in Calm   3 mph 94% 0.00 in 0 W/m2
04:34 60.4 °F 58.7 °F 29.71 in Calm   3 mph 94% 0.00 in 0 W/m2
04:39 60.3 °F 58.6 °F 29.71 in Calm     94% 0.00 in 0 W/m2
04:44 60.3 °F 58.6 °F 29.71 in Calm     94.1% 0.00 in 0 W/m2
04:49 60.4 °F 59 °F 29.71 in Calm     95% 0.00 in 0 W/m2
04:54 60.4 °F 59 °F 29.71 in Calm     95% 0.00 in 0 W/m2
04:59 60.5 °F 58.9 °F 29.72 in Calm     94.5% 0.00 in 0 W/m2
05:04 60.4 °F 58.7 °F 29.71 in Calm     94% 0.00 in 0 W/m2
05:09 60.4 °F 58.6 °F 29.72 in Calm     94% 0.00 in 0 W/m2
05:14 60.3 °F 58.5 °F 29.72 in Calm     94% 0.00 in 0 W/m2
05:19 60.2 °F 58.5 °F 29.71 in Calm     94% 0.00 in 0 W/m2
05:24 60.1 °F 58.4 °F 29.71 in Calm     94% 0.00 in 0 W/m2
05:29 60.1 °F 58.5 °F 29.72 in Calm     94.4% 0.00 in 0 W/m2
05:34 60.3 °F 58.8 °F 29.72 in Calm     95% 0.00 in 0 W/m2
05:39 60.4 °F 59 °F 29.72 in Calm     95% 0.00 in 0 W/m2
05:44 60.4 °F 59 °F 29.72 in Calm     95% 0.00 in 0 W/m2
05:49 60.5 °F 58.8 °F 29.72 in Calm     94.2% 0.00 in 0 W/m2
05:54 60.4 °F 58.7 °F 29.72 in Calm     94% 0.00 in 0 W/m2
05:59 60.3 °F 58.6 °F 29.72 in Calm     94% 0.00 in 0 W/m2
06:04 60.2 °F 58.5 °F 29.72 in Calm     94% 0.00 in 0 W/m2
06:09 60.1 °F 58.4 °F 29.72 in Calm     94% 0.00 in 0 W/m2
06:14 60 °F 58.3 °F 29.72 in Calm     94% 0.00 in 0 W/m2
06:19 59.9 °F 58.2 °F 29.72 in Calm     94% 0.00 in 0 W/m2
06:24 59.8 °F 58 °F 29.72 in Calm     94% 0.00 in 0 W/m2
06:29 59.7 °F 58 °F 29.72 in Calm     94% 0.00 in 0 W/m2
06:34 59.6 °F 57.9 °F 29.72 in Calm     94% 0.00 in 0 W/m2
06:39 59.6 °F 57.9 °F 29.72 in Calm     94% 0.00 in 0 W/m2
06:44 59.5 °F 57.8 °F 29.72 in Calm     94% 0.00 in 0 W/m2
06:49 59.5 °F 57.8 °F 29.73 in Calm     94% 0.00 in 0 W/m2
06:54 59.5 °F 57.8 °F 29.73 in Calm     94% 0.00 in 0 W/m2
06:59 59.5 °F 57.8 °F 29.73 in Calm     94% 0.00 in 0 W/m2
07:04 59.4 °F 57.7 °F 29.73 in Calm     94% 0.00 in 0 W/m2
07:09 59.3 °F 57.6 °F 29.74 in Calm     94% 0.00 in 0 W/m2
07:14 59.2 °F 57.5 °F 29.74 in Calm     94% 0.00 in 0 W/m2
07:19 59.1 °F 57.1 °F 29.74 in Calm     93% 0.00 in 0 W/m2
07:24 59 °F 57 °F 29.74 in Calm     93% 0.00 in 5 W/m2
07:29 58.9 °F 56.8 °F 29.74 in Calm     93% 0.00 in 7 W/m2
07:34 58.7 °F 56.7 °F 29.74 in Calm     93% 0.00 in 7 W/m2
07:39 58.6 °F 56.6 °F 29.75 in Calm     93% 0.00 in 11 W/m2
07:44 58.6 °F 56.6 °F 29.75 in Calm     93% 0.00 in 11 W/m2
07:49 58.5 °F 56.6 °F 29.76 in Calm     93.3% 0.00 in 21 W/m2
07:54 58.5 °F 56.5 °F 29.76 in Calm     93% 0.00 in 46 W/m2
07:59 58.5 °F 56.6 °F 29.76 in Calm     93.3% 0.00 in 54 W/m2
08:04 58.8 °F 57.1 °F 29.76 in Calm     94% 0.00 in 49 W/m2
08:09 58.8 °F 57.1 °F 29.76 in Calm     94% 0.00 in 63 W/m2
08:14 59.1 °F 57.3 °F 29.77 in Calm     94% 0.00 in 63 W/m2
08:19 59.4 °F 57.6 °F 29.77 in Calm     94% 0.00 in 51 W/m2
08:24 59.6 °F 57.9 °F 29.77 in Calm     94% 0.00 in 39 W/m2
08:29 59.8 °F 57.9 °F 29.78 in Calm     93.5% 0.00 in 37 W/m2
08:34 59.8 °F 57.8 °F 29.78 in SW 0.3 mph 5 mph 93% 0.00 in 21 W/m2
08:39 59.8 °F 57.4 °F 29.78 in Calm   5 mph 92% 0.00 in 28 W/m2
08:44 59.8 °F 57.2 °F 29.78 in WSW 0.1 mph 5 mph 91.2% 0.00 in 28 W/m2
08:49 59.8 °F 57.2 °F 29.79 in Calm   5 mph 91% 0.00 in 199 W/m2
08:54 60.1 °F 57.5 °F 29.79 in Calm   5 mph 91% 0.00 in 172 W/m2
08:59 60.5 °F 57.7 °F 29.79 in Calm   5 mph 90.3% 0.00 in 197 W/m2
09:04 61 °F 58.1 °F 29.79 in Calm   5 mph 90% 0.00 in 279 W/m2
09:09 61.8 °F 58.5 °F 29.79 in WSW 0.5 mph 6 mph 88.8% 0.00 in 292 W/m2
09:14 62.9 °F 59 °F 29.79 in WSW 0.3 mph 7 mph 87.3% 0.00 in 309 W/m2
09:19 64 °F 59.4 °F 29.80 in WSW 0.7 mph 9 mph 84.9% 0.00 in 309 W/m2
09:24 65 °F 59.5 °F 29.80 in Calm   9 mph 82.2% 0.00 in 329 W/m2
09:29 66 °F 59.8 °F 29.80 in WSW 0.1 mph 9 mph 80.4% 0.00 in 343 W/m2
09:34 66.8 °F 60 °F 29.80 in West 0.9 mph 9 mph 78.8% 0.00 in 357 W/m2
09:39 67.6 °F 59.9 °F 29.80 in WSW 0.2 mph 6 mph 76.5% 0.00 in 381 W/m2
09:44 68.3 °F 60.2 °F 29.80 in WSW 0.1 mph 6 mph 75.5% 0.00 in 385 W/m2
09:49 68.9 °F 60.3 °F 29.80 in WSW 0.4 mph 6 mph 74.1% 0.00 in 362 W/m2
09:54 69.4 °F 60.2 °F 29.80 in WSW 0.1 mph 6 mph 72.4% 0.00 in 380 W/m2
09:59 69.9 °F 60.1 °F 29.80 in Calm   6 mph 71.1% 0.00 in 427 W/m2
10:04 70.3 °F 59.9 °F 29.80 in WSW 0.9 mph 6 mph 69.7% 0.00 in 434 W/m2
10:09 70.6 °F 59.5 °F 29.80 in WSW 0.6 mph 6 mph 68% 0.00 in 454 W/m2
10:14 70.6 °F 59.3 °F 29.80 in WSW 0.8 mph 7 mph 67.3% 0.00 in 478 W/m2
10:19 70.7 °F 59.3 °F 29.81 in West 2.3 mph 12 mph 67% 0.00 in 492 W/m2
10:24 70.9 °F 59 °F 29.81 in West 3.3 mph 12 mph 66% 0.00 in 506 W/m2
10:29 71.1 °F 58.7 °F 29.80 in WNW 2.6 mph 12 mph 64.9% 0.00 in 510 W/m2
10:34 71.3 °F 58.7 °F 29.81 in WNW 0.5 mph 12 mph 64.4% 0.00 in 533 W/m2
10:39 71.8 °F 59.4 °F 29.81 in WSW 0.4 mph 4 mph 65% 0.00 in 543 W/m2
10:44 72.2 °F 58.6 °F 29.80 in West 3.4 mph 9 mph 62.3% 0.00 in 543 W/m2
10:49 72.2 °F 58.1 °F 29.81 in West 1.3 mph 9 mph 61% 0.00 in 555 W/m2
10:54 72.3 °F 57.9 °F 29.81 in WSW 2.2 mph 9 mph 60.6% 0.00 in 568 W/m2
10:59 72.5 °F 57.9 °F 29.81 in West 2.3 mph 9 mph 60.2% 0.00 in 575 W/m2
11:04 72.6 °F 57.7 °F 29.81 in WSW 1.5 mph 10 mph 59.5% 0.00 in 577 W/m2
11:09 72.7 °F 57.5 °F 29.81 in WSW 1.7 mph 10 mph 58.9% 0.00 in 563 W/m2
11:14 73 °F 57.7 °F 29.81 in West 2.4 mph 10 mph 58.8% 0.00 in 378 W/m2
11:19 73.3 °F 57.5 °F 29.81 in WNW 2.9 mph 10 mph 57.7% 0.00 in 439 W/m2
11:24 73.4 °F 56.9 °F 29.81 in WNW 1.2 mph 10 mph 56.2% 0.00 in 313 W/m2
11:29 73.6 °F 57.3 °F 29.81 in West 3 mph 10 mph 56.7% 0.00 in 322 W/m2
11:34 73.8 °F 57.5 °F 29.81 in WNW 2.5 mph 10 mph 56.7% 0.00 in 582 W/m2
11:39 74.2 °F 57.2 °F 29.81 in WNW 2.6 mph 9 mph 55.5% 0.00 in 612 W/m2
11:44 74.6 °F 57 °F 29.81 in WNW 1.5 mph 9 mph 54.3% 0.00 in 378 W/m2
11:49 74.5 °F 56.6 °F 29.81 in WNW 1.6 mph 9 mph 53.5% 0.00 in 158 W/m2
11:54 73.8 °F 55.7 °F 29.82 in WNW 1.7 mph 9 mph 53.2% 0.00 in 128 W/m2
11:59 72.9 °F 55.6 °F 29.81 in WNW 1.8 mph 9 mph 54.5% 0.00 in 167 W/m2
12:00 72.5 °F 54.9 °F 29.81 in WNW 1 mph 9 mph 54% 0.00 in 167 W/m2
12:09 71.7 °F 55.2 °F 29.82 in NW 1.2 mph 5 mph 56% 0.00 in 211 W/m2
12:14 71.5 °F 54.9 °F 29.82 in NW 0.7 mph 5 mph 55.7% 0.00 in 211 W/m2
12:19 71.3 °F 55.2 °F 29.81 in NW 0.6 mph 5 mph 56.6% 0.00 in 109 W/m2
12:24 71.1 °F 55.9 °F 29.81 in NW 0.3 mph 5 mph 58.5% 0.00 in 279 W/m2
12:29 71.1 °F 55.7 °F 29.81 in NW 0.6 mph 5 mph 58.3% 0.00 in 258 W/m2
12:34 71 °F 55.5 °F 29.81 in WNW 0.6 mph 5 mph 58% 0.00 in 195 W/m2
12:39 71.1 °F 56.5 °F 29.81 in WNW 0.4 mph 3 mph 59.9% 0.00 in 220 W/m2
12:44 71 °F 55.5 °F 29.81 in West 1.4 mph 9 mph 58.1% 0.00 in 185 W/m2
12:49 70.7 °F 54.6 °F 29.81 in West 1.6 mph 9 mph 56.6% 0.00 in 176 W/m2
12:54 70.5 °F 54.5 °F 29.81 in West 1.3 mph 9 mph 56.9% 0.00 in 207 W/m2
12:59 70.4 °F 54.8 °F 29.81 in WSW 0.9 mph 9 mph 57.9% 0.00 in 200 W/m2
13:04 70.3 °F 54.5 °F 29.81 in West 1 mph 9 mph 57.3% 0.00 in 167 W/m2
13:09 70.3 °F 55.2 °F 29.81 in West 1.1 mph 5 mph 58.7% 0.00 in 137 W/m2
13:14 70.1 °F 54.2 °F 29.81 in West 1.4 mph 5 mph 57% 0.00 in 107 W/m2
13:19 70 °F 54.4 °F 29.81 in West 0.8 mph 5 mph 57.6% 0.00 in 243 W/m2
13:24 70 °F 54.4 °F 29.81 in Calm   5 mph 57.7% 0.00 in 265 W/m2
13:29 70.4 °F 55.2 °F 29.81 in Calm   5 mph 58.6% 0.00 in 462 W/m2
13:34 71 °F 55.3 °F 29.81 in WNW 2.2 mph 6 mph 57.6% 0.00 in 146 W/m2
13:39 71.4 °F 54.9 °F 29.81 in WNW 1.5 mph 6 mph 56% 0.00 in 169 W/m2
13:44 71.4 °F 54.8 °F 29.81 in Calm   6 mph 55.9% 0.00 in 169 W/m2
13:49 71.3 °F 55.3 °F 29.81 in WNW 0.3 mph 6 mph 57.2% 0.00 in 165 W/m2
13:54 71.2 °F 55.2 °F 29.81 in WNW 1.3 mph 6 mph 57.1% 0.00 in 169 W/m2
13:59 71 °F 54.6 °F 29.81 in WNW 0.9 mph 6 mph 56.2% 0.00 in 144 W/m2
14:04 70.9 °F 54.8 °F 29.81 in Calm   6 mph 56.8% 0.00 in 149 W/m2
14:09 70.8 °F 54.6 °F 29.81 in Calm   1 mph 56.5% 0.00 in 206 W/m2
14:14 70.9 °F 55 °F 29.81 in Calm   1 mph 57.2% 0.00 in 178 W/m2
14:19 70.9 °F 54.9 °F 29.81 in West 1 mph 5 mph 57% 0.00 in 181 W/m2
14:24 71 °F 55.1 °F 29.81 in Calm   5 mph 57.3% 0.00 in 167 W/m2
14:29 71 °F 55.4 °F 29.80 in Calm   5 mph 57.7% 0.00 in 155 W/m2
14:34 71 °F 54.8 °F 29.80 in West 0.1 mph 5 mph 56.5% 0.00 in 139 W/m2
14:39 70.9 °F 54.7 °F 29.80 in WNW 0.5 mph 7 mph 56.4% 0.00 in 144 W/m2
14:44 70.8 °F 54.7 °F 29.80 in WNW 1.6 mph 7 mph 56.9% 0.00 in 156 W/m2
14:49 70.6 °F 54.6 °F 29.80 in WNW 2.3 mph 7 mph 57% 0.00 in 169 W/m2
14:54 70.5 °F 55 °F 29.80 in WNW 0.6 mph 7 mph 57.9% 0.00 in 229 W/m2
14:59 70.6 °F 55.1 °F 29.81 in WNW 1.1 mph 7 mph 58.1% 0.00 in 167 W/m2
15:04 70.7 °F 55 °F 29.81 in WNW 0.4 mph 7 mph 57.6% 0.00 in 176 W/m2
15:09 70.8 °F 55.7 °F 29.81 in WNW 1 mph 6 mph 58.9% 0.00 in 146 W/m2
15:14 70.8 °F 55.7 °F 29.81 in NW 1.2 mph 6 mph 58.8% 0.00 in 88 W/m2
15:19 70.4 °F 55.4 °F 29.81 in NW 1.9 mph 6 mph 59% 0.00 in 62 W/m2
15:24 70 °F 55.3 °F 29.81 in NW 1.3 mph 6 mph 59.7% 0.00 in 76 W/m2
15:29 69.5 °F 55.4 °F 29.81 in NW 1.3 mph 6 mph 60.8% 0.00 in 102 W/m2
15:34 69.1 °F 55.2 °F 29.81 in WNW 1.8 mph 6 mph 61.1% 0.00 in 109 W/m2
15:39 68.8 °F 55 °F 29.81 in WNW 2.3 mph 7 mph 61.4% 0.00 in 114 W/m2
15:44 68.5 °F 55 °F 29.81 in NW 3.2 mph 7 mph 62% 0.00 in 118 W/m2
15:49 68.3 °F 54.9 °F 29.81 in NW 2 mph 7 mph 62.2% 0.00 in 120 W/m2
15:54 68.3 °F 55.2 °F 29.81 in NNW 1.2 mph 7 mph 63% 0.00 in 116 W/m2
15:59 68.3 °F 55.3 °F 29.82 in NW 2 mph 7 mph 63.2% 0.00 in 114 W/m2
16:00 68.2 °F 55.1 °F 29.82 in WNW 5 mph 7 mph 63% 0.00 in 102 W/m2
16:09 67.9 °F 54.8 °F 29.81 in WNW 2.2 mph 7 mph 62.9% 0.00 in 102 W/m2
16:14 67.7 °F 54.8 °F 29.81 in WNW 1.6 mph 7 mph 63.3% 0.00 in 88 W/m2
16:19 67.7 °F 55.3 °F 29.81 in WNW 2.1 mph 7 mph 64.7% 0.00 in 97 W/m2
16:24 67.6 °F 55 °F 29.81 in WNW 2 mph 7 mph 64.1% 0.00 in 83 W/m2
16:29 67.4 °F 55.1 °F 29.82 in West 1.9 mph 7 mph 64.5% 0.00 in 77 W/m2
16:34 67.4 °F 55.2 °F 29.82 in WNW 1.2 mph 7 mph 65% 0.00 in 81 W/m2
16:39 67.4 °F 55.4 °F 29.82 in WNW 0.2 mph 5 mph 65.5% 0.00 in 77 W/m2
16:44 67.4 °F 55.7 °F 29.82 in WNW 0.8 mph 5 mph 66% 0.00 in 69 W/m2
16:49 67.5 °F 55.7 °F 29.82 in WNW 0.3 mph 5 mph 65.8% 0.00 in 62 W/m2
16:54 67.5 °F 55.6 °F 29.82 in Calm   5 mph 65.8% 0.00 in 54 W/m2
16:59 67.4 °F 55.4 °F 29.83 in WNW 1.7 mph 6 mph 65.5% 0.00 in 44 W/m2
17:04 67.2 °F 55.3 °F 29.83 in WNW 3.4 mph 10 mph 65.7% 0.00 in 40 W/m2
17:09 66.9 °F 55.5 °F 29.83 in WNW 1.3 mph 10 mph 66.6% 0.00 in 35 W/m2
17:14 66.7 °F 55.3 °F 29.83 in WNW 1.6 mph 10 mph 66.7% 0.00 in 35 W/m2
17:19 66.5 °F 55.2 °F 29.83 in NNW 1.7 mph 10 mph 67% 0.00 in 32 W/m2
17:24 66.3 °F 55.1 °F 29.83 in NNW 0.8 mph 10 mph 67.2% 0.00 in 25 W/m2
17:29 66.1 °F 54.8 °F 29.83 in North 1.2 mph 10 mph 67% 0.01 in 18 W/m2
17:34 65.9 °F 54.6 °F 29.83 in North 1.2 mph 10 mph 67% 0.01 in 16 W/m2
17:39 65.7 °F 54.8 °F 29.84 in North 0.8 mph 5 mph 67.7% 0.01 in 12 W/m2
17:44 65.5 °F 54.6 °F 29.84 in Calm   5 mph 67.7% 0.01 in 9 W/m2
17:49 65.3 °F 54.4 °F 29.84 in West 1 mph 5 mph 67.8% 0.01 in 7 W/m2
17:54 65.2 °F 54.3 °F 29.84 in West 0.6 mph 5 mph 67.8% 0.01 in 5 W/m2
17:59 65 °F 54.2 °F 29.84 in Calm   5 mph 68% 0.01 in 0 W/m2
18:04 64.8 °F 54.1 °F 29.84 in Calm   5 mph 68.1% 0.01 in 0 W/m2
18:09 64.6 °F 54.3 °F 29.84 in Calm     69% 0.01 in 0 W/m2
18:14 64.5 °F 54.1 °F 29.84 in Calm     69% 0.01 in 0 W/m2
18:19 64.3 °F 54.3 °F 29.85 in Calm     69.8% 0.01 in 0 W/m2
18:24 64.1 °F 54 °F 29.85 in Calm     69.5% 0.01 in 0 W/m2
18:29 64 °F 54 °F 29.85 in Calm     70% 0.01 in 0 W/m2
18:34 63.8 °F 53.8 °F 29.85 in Calm     69.8% 0.01 in 0 W/m2
18:39 63.6 °F 53.6 °F 29.85 in WNW 0.6 mph 7 mph 70% 0.00 in 0 W/m2
18:44 63.4 °F 53.3 °F 29.86 in WNW 1.2 mph 7 mph 69.5% 0.00 in 0 W/m2
18:49 63.2 °F 53 °F 29.86 in WNW 0.3 mph 7 mph 69.1% 0.00 in 0 W/m2
18:54 63.1 °F 53.2 °F 29.86 in Calm   7 mph 70% 0.00 in 0 W/m2
18:59 63 °F 53.1 °F 29.86 in Calm   7 mph 70% 0.00 in 0 W/m2
19:04 62.9 °F 52.7 °F 29.86 in Calm   7 mph 69.5% 0.00 in 0 W/m2
19:09 62.7 °F 52.5 °F 29.86 in WNW 1.5 mph 9 mph 69.2% 0.00 in 0 W/m2
19:14 62.6 °F 52.1 °F 29.86 in NNW 1 mph 9 mph 68.7% 0.00 in 0 W/m2
19:19 62.4 °F 51.7 °F 29.87 in WNW 3 mph 12 mph 67.9% 0.00 in 0 W/m2
19:24 62.2 °F 51.3 °F 29.87 in NW 2.4 mph 12 mph 67.5% 0.00 in 0 W/m2
19:29 62 °F 51.4 °F 29.87 in NW 2 mph 12 mph 68% 0.00 in 0 W/m2
19:34 61.8 °F 50.8 °F 29.87 in NW 4.5 mph 12 mph 67.2% 0.00 in 0 W/m2
19:39 61.6 °F 50.5 °F 29.88 in WNW 2.6 mph 10 mph 67.1% 0.00 in 0 W/m2
19:44 61.4 °F 50.7 °F 29.88 in WNW 0.5 mph 10 mph 68% 0.00 in 0 W/m2
19:49 61.2 °F 50.6 °F 29.88 in Calm   10 mph 68% 0.00 in 0 W/m2
19:54 61.1 °F 50.5 °F 29.88 in Calm   10 mph 68% 0.00 in 0 W/m2
19:59 61 °F 50.3 °F 29.89 in NW 1.4 mph 10 mph 68% 0.00 in 0 W/m2
20:00 60.9 °F 50.3 °F 29.89 in NW 1 mph 10 mph 68% 0.00 in 0 W/m2
20:09 60.8 °F 50.2 °F 29.89 in NW 0.6 mph 7 mph 68% 0.00 in 0 W/m2
20:14 60.7 °F 49.7 °F 29.89 in NW 1.4 mph 7 mph 67.1% 0.00 in 0 W/m2
20:19 60.5 °F 49.5 °F 29.89 in NW 2.6 mph 8 mph 67% 0.00 in 0 W/m2
20:24 60.3 °F 49.4 °F 29.89 in NW 3.5 mph 13 mph 67% 0.00 in 0 W/m2
20:29 60.1 °F 49.1 °F 29.89 in NNW 2 mph 13 mph 67% 0.00 in 0 W/m2
20:34 59.9 °F 49.1 °F 29.89 in NNW 1.9 mph 13 mph 67.5% 0.00 in 0 W/m2
20:39 59.7 °F 49 °F 29.89 in NNW 0.3 mph 5 mph 67.5% 0.00 in 0 W/m2
20:44 59.6 °F 49.1 °F 29.89 in NNW 0.4 mph 5 mph 68.1% 0.00 in 0 W/m2
20:49 59.5 °F 49.3 °F 29.89 in Calm   5 mph 69% 0.00 in 0 W/m2
20:54 59.3 °F 49.1 °F 29.89 in NNW 0.1 mph 5 mph 69% 0.00 in 0 W/m2
20:59 59.1 °F 48.9 °F 29.89 in Calm   5 mph 69% 0.00 in 0 W/m2
21:04 58.9 °F 48.7 °F 29.89 in NNW 1.8 mph 6 mph 69% 0.00 in 0 W/m2
21:09 58.6 °F 48.8 °F 29.89 in NNW 0.4 mph 6 mph 69.8% 0.00 in 0 W/m2
21:14 58.5 °F 48.8 °F 29.90 in Calm   6 mph 70.1% 0.00 in 0 W/m2
21:19 58.3 °F 49 °F 29.89 in Calm   6 mph 71% 0.00 in 0 W/m2
21:24 58.2 °F 48.8 °F 29.89 in NNW 0.3 mph 6 mph 71% 0.00 in 0 W/m2
21:29 58 °F 48.4 °F 29.89 in NNW 2.5 mph 6 mph 70.1% 0.00 in 0 W/m2
21:34 57.8 °F 48.1 °F 29.90 in NNW 1.9 mph 6 mph 70% 0.00 in 0 W/m2
21:39 57.7 °F 48 °F 29.90 in NW 1.6 mph 6 mph 70% 0.00 in 0 W/m2
21:44 57.5 °F 48.2 °F 29.90 in WNW 2 mph 6 mph 71% 0.00 in 0 W/m2
21:49 57.4 °F 48.1 °F 29.91 in Calm   6 mph 71% 0.00 in 0 W/m2
21:54 57.3 °F 47.9 °F 29.91 in NW 0.4 mph 6 mph 70.6% 0.00 in 0 W/m2
21:59 57.2 °F 47.6 °F 29.91 in NW 0.3 mph 6 mph 70.2% 0.00 in 0 W/m2
22:04 57.1 °F 47.5 °F 29.91 in Calm   6 mph 70.3% 0.00 in 0 W/m2
22:09 56.9 °F 47.3 °F 29.91 in Calm   1 mph 70% 0.00 in 0 W/m2
22:14 56.8 °F 47.1 °F 29.91 in Calm   1 mph 70% 0.00 in 0 W/m2
22:19 56.6 °F 47.3 °F 29.91 in Calm   1 mph 70.8% 0.00 in 0 W/m2
22:24 56.4 °F 47.1 °F 29.91 in NW 0.5 mph 6 mph 70.9% 0.00 in 0 W/m2
22:29 56.3 °F 46.6 °F 29.91 in NNW 0.8 mph 6 mph 70% 0.00 in 0 W/m2
22:34 56.1 °F 46.5 °F 29.91 in NW 0.4 mph 6 mph 70% 0.00 in 0 W/m2
22:39 56 °F 46.3 °F 29.91 in NW 1.6 mph 5 mph 70% 0.00 in 0 W/m2
22:44 55.8 °F 46.2 °F 29.91 in NW 0.8 mph 5 mph 70% 0.00 in 0 W/m2
22:49 55.7 °F 46 °F 29.91 in Calm   5 mph 70% 0.00 in 0 W/m2
22:54 55.5 °F 46.2 °F 29.91 in NNW 0.6 mph 5 mph 70.8% 0.00 in 0 W/m2
22:59 55.3 °F 46 °F 29.91 in NNW 1.8 mph 6 mph 71% 0.00 in 0 W/m2
23:04 55.1 °F 45.6 °F 29.91 in NNW 0.1 mph 6 mph 70.4% 0.00 in 0 W/m2
23:09 54.9 °F 45.1 °F 29.91 in NNW 3.3 mph 10 mph 69.4% 0.00 in 0 W/m2
23:14 54.8 °F 44.7 °F 29.91 in NW 1.1 mph 10 mph 68.6% 0.00 in 0 W/m2
23:19 54.7 °F 44.3 °F 29.91 in NW 0.7 mph 10 mph 68% 0.00 in 0 W/m2
23:24 54.6 °F 44.2 °F 29.91 in North 1.2 mph 10 mph 68% 0.00 in 0 W/m2
23:29 54.5 °F 44.2 °F 29.91 in North 1.3 mph 10 mph 68% 0.00 in 0 W/m2
23:34 54.4 °F 44 °F 29.91 in NNW 1.2 mph 10 mph 67.9% 0.00 in 0 W/m2
23:39 54.3 °F 43.9 °F 29.91 in Calm   5 mph 67.7% 0.00 in 0 W/m2
23:44 54.2 °F 43.9 °F 29.91 in Calm   5 mph 68% 0.00 in 0 W/m2
23:49 54.2 °F 44.1 °F 29.90 in Calm   5 mph 68.7% 0.00 in 0 W/m2
23:54 54 °F 44.1 °F 29.90 in Calm   5 mph 69% 0.00 in 0 W/m2
23:59 53.9 °F 44.1 °F 29.90 in Calm   5 mph 69.2% 0.00 in 0 W/m2
Hartford County Weather
Compliments of Weather Underground - 4 mb